Time;durP1;ratioP1;P1;durP2;ratioP2;P2;SDS_P1;SDS_P2;PMS_P1;PMS_P2;Temp;Humidity;BMP_temperature;BMP_pressure;BME280_temperature;BME280_humidity;BME280_pressure;Samples;Min_cycle;Max_cycle;Signal;HPM_P1;HPM_P2
2022/10/29 00:00:26;;;;;;;8.27;5.23;;;21.50;71.00;22.60;101347.00;;;;5089297;28;20208;-49
2022/10/29 00:02:52;;;;;;;6.37;5.20;;;21.60;71.10;22.60;101342.00;;;;5089263;28;20173;-50
2022/10/29 00:05:18;;;;;;;6.57;4.97;;;21.50;70.90;22.60;101331.00;;;;5088662;28;20677;-49
2022/10/29 00:07:43;;;;;;;10.07;5.20;;;21.50;70.90;22.60;101330.00;;;;5089049;28;20280;-50
2022/10/29 00:10:09;;;;;;;5.20;4.70;;;21.50;71.00;22.60;101335.00;;;;5089273;28;20224;-49
2022/10/29 00:12:35;;;;;;;6.40;4.70;;;21.50;71.00;22.60;101343.00;;;;5089332;28;20195;-49
2022/10/29 00:15:02;;;;;;;6.67;5.10;;;21.50;71.00;22.50;101334.00;;;;5050056;28;1083371;-49
2022/10/29 00:17:27;;;;;;;7.60;5.00;;;21.50;71.00;22.50;101346.00;;;;5090030;28;20708;-49
2022/10/29 00:19:53;;;;;;;8.23;5.17;;;21.50;70.90;22.50;101336.00;;;;5089597;28;20204;-48
2022/10/29 00:22:19;;;;;;;7.07;4.70;;;21.50;71.00;22.50;101339.00;;;;5089766;28;20177;-49
2022/10/29 00:24:44;;;;;;;6.53;4.97;;;21.50;71.00;22.50;101345.00;;;;5089558;28;20177;-48
2022/10/29 00:27:10;;;;;;;6.40;4.80;;;21.50;70.90;22.50;101337.00;;;;5089414;28;20680;-49
2022/10/29 00:29:36;;;;;;;8.13;5.33;;;21.40;70.90;22.50;101341.00;;;;5089411;28;20185;-48
2022/10/29 00:32:02;;;;;;;6.57;4.90;;;21.50;71.10;22.50;101341.00;;;;5090035;28;20534;-48
2022/10/29 00:34:28;;;;;;;7.33;5.30;;;21.40;71.10;22.50;101344.00;;;;5089737;28;20184;-48
2022/10/29 00:36:53;;;;;;;7.17;5.00;;;21.40;71.10;22.50;101340.00;;;;5090058;28;20172;-48
2022/10/29 00:39:19;;;;;;;6.90;5.10;;;21.40;71.20;22.50;101348.00;;;;5089519;28;20185;-49
2022/10/29 00:41:45;;;;;;;5.43;4.93;;;21.40;71.20;22.40;101346.00;;;;5094005;28;20267;-49
2022/10/29 00:44:13;;;;;;;7.03;5.43;;;21.40;71.20;22.40;101341.00;;;;5089609;28;20620;-49
2022/10/29 00:46:46;;;;;;;9.07;4.90;;;21.40;71.30;22.40;101338.00;;;;5088793;28;20700;-48
2022/10/29 00:49:11;;;;;;;7.53;4.87;;;21.40;71.30;22.40;101348.00;;;;5072134;28;20177;-50
2022/10/29 00:51:37;;;;;;;7.63;5.13;;;21.40;71.30;22.40;101350.00;;;;5094216;28;20230;-47
2022/10/29 00:54:08;;;;;;;6.00;4.70;;;21.40;71.40;22.40;101348.00;;;;5092070;28;20169;-48
2022/10/29 00:56:37;;;;;;;5.97;4.63;;;21.40;71.30;22.40;101349.00;;;;5073430;28;20157;-49
2022/10/29 00:59:03;;;;;;;6.13;4.50;;;21.40;71.30;22.40;101348.00;;;;5088175;28;20201;-49
2022/10/29 01:01:28;;;;;;;7.13;4.87;;;21.40;71.30;22.30;101337.00;;;;5087830;28;20220;-48
2022/10/29 01:03:54;;;;;;;8.73;5.13;;;21.40;71.40;22.30;101337.00;;;;5088993;28;20726;-49
2022/10/29 01:06:21;;;;;;;7.13;5.00;;;21.30;71.30;22.30;101314.00;;;;5087850;28;20208;-48
2022/10/29 01:08:46;;;;;;;7.40;4.77;;;21.30;71.30;22.30;101319.00;;;;5055104;28;20169;-48
2022/10/29 01:11:33;;;;;;;7.50;5.00;;;21.30;71.30;22.30;101333.00;;;;5089027;28;20185;-49
2022/10/29 01:14:50;;;;;;;9.63;5.30;;;21.30;71.40;22.20;101322.00;;;;5087957;28;20709;-48
2022/10/29 01:17:52;;;;;;;5.97;4.80;;;21.30;71.40;22.30;101322.00;;;;5045988;28;20186;-48
2022/10/29 01:21:01;;;;;;;7.07;5.13;;;21.30;71.40;22.30;101333.00;;;;5045979;28;20252;-48
2022/10/29 01:23:54;;;;;;;6.50;4.90;;;21.30;71.50;22.20;101329.00;;;;5088411;28;20177;-49
2022/10/29 01:26:36;;;;;;;6.07;4.90;;;21.30;71.50;22.20;101319.00;;;;5087588;28;20570;-48
2022/10/29 01:29:10;;;;;;;8.33;4.90;;;21.30;71.50;22.20;101315.00;;;;5071892;28;20229;-48
2022/10/29 01:31:47;;;;;;;6.10;4.80;;;21.30;71.60;22.20;101317.00;;;;5088916;28;20168;-48
2022/10/29 01:34:30;;;;;;;7.53;4.47;;;21.30;71.60;22.20;101317.00;;;;5087621;28;20157;-49
2022/10/29 01:37:02;;;;;;;6.80;4.73;;;21.30;71.70;22.20;101318.00;;;;5055388;28;20164;-48
2022/10/29 01:40:20;;;;;;;7.13;4.57;;;21.20;71.70;22.20;101320.00;;;;5075618;28;20578;-48
2022/10/29 01:42:57;;;;;;;10.73;4.87;;;21.30;71.80;22.20;101314.00;;;;5077934;28;20226;-48
2022/10/29 01:45:26;;;;;;;9.33;5.07;;;21.20;71.70;22.20;101317.00;;;;5071059;28;20207;-48
2022/10/29 01:48:09;;;;;;;7.83;5.20;;;21.20;71.70;22.20;101314.00;;;;5081459;28;20244;-49
2022/10/29 01:50:35;;;;;;;6.83;4.83;;;21.20;71.70;22.20;101316.00;;;;5064072;28;20279;-49
2022/10/29 01:53:03;;;;;;;8.20;4.63;;;21.20;71.70;22.20;101310.00;;;;5076483;28;20167;-49
2022/10/29 01:55:33;;;;;;;6.93;5.10;;;21.20;71.60;22.20;101307.00;;;;5054054;28;20173;-49
2022/10/29 01:58:03;;;;;;;7.33;5.00;;;21.20;71.60;22.20;101301.00;;;;5087278;28;20716;-49
2022/10/29 02:01:09;;;;;;;6.37;4.70;;;21.20;71.70;22.20;101288.00;;;;5088945;28;20527;-49
2022/10/29 02:04:05;;;;;;;5.97;4.80;;;21.20;71.70;22.20;101290.00;;;;5080779;28;20238;-48
2022/10/29 02:06:48;;;;;;;9.30;5.10;;;21.20;71.70;22.10;101289.00;;;;5089710;28;20276;-49
2022/10/29 02:09:52;;;;;;;6.43;5.10;;;21.20;71.70;22.10;101292.00;;;;5088244;28;20184;-49
2022/10/29 02:12:51;;;;;;;7.27;4.70;;;21.10;71.70;22.10;101284.00;;;;5087420;28;20169;-49
2022/10/29 02:15:32;;;;;;;6.13;5.00;;;21.20;71.80;22.10;101294.00;;;;5086680;28;20702;-49
2022/10/29 02:18:02;;;;;;;6.70;4.87;;;21.10;71.70;22.10;101289.00;;;;5054864;28;20658;-50
2022/10/29 02:20:28;;;;;;;6.73;5.00;;;21.20;71.80;22.10;101281.00;;;;5087112;28;20189;-48
2022/10/29 02:22:54;;;;;;;7.20;4.90;;;21.20;71.80;22.10;101287.00;;;;5088485;28;20777;-50
2022/10/29 02:25:19;;;;;;;8.07;4.90;;;21.20;71.80;22.10;101279.00;;;;5088098;28;20204;-48
2022/10/29 02:27:45;;;;;;;7.10;4.60;;;21.20;71.70;22.10;101278.00;;;;5088883;28;20277;-48
2022/10/29 02:30:11;;;;;;;6.20;4.97;;;21.10;71.50;22.10;101277.00;;;;5088374;28;20200;-49
2022/10/29 02:32:37;;;;;;;6.70;4.57;;;21.10;71.50;22.10;101255.00;;;;5088211;28;20279;-48
2022/10/29 02:35:03;;;;;;;5.93;4.70;;;21.10;71.60;22.00;101269.00;;;;5088289;28;20200;-50
2022/10/29 02:37:28;;;;;;;7.17;4.67;;;21.10;71.60;22.10;101265.00;;;;5088324;28;20192;-53
2022/10/29 02:39:54;;;;;;;6.33;4.90;;;21.10;71.60;22.10;101265.00;;;;5088522;28;20205;-48
2022/10/29 02:42:20;;;;;;;6.50;4.70;;;21.10;71.70;22.10;101272.00;;;;5087988;28;20185;-48
2022/10/29 02:44:46;;;;;;;8.10;5.07;;;21.10;71.70;22.10;101267.00;;;;5086598;28;20201;-48
2022/10/29 02:47:12;;;;;;;8.50;4.90;;;21.00;71.50;22.10;101269.00;;;;5088387;28;20222;-48
2022/10/29 02:49:37;;;;;;;11.80;5.37;;;21.10;71.90;22.10;101265.00;;;;5088311;28;20196;-48
2022/10/29 02:52:03;;;;;;;9.73;4.97;;;21.10;71.80;22.00;101262.00;;;;5087860;28;20162;-48
2022/10/29 02:54:30;;;;;;;8.20;4.80;;;21.10;71.80;22.10;101278.00;;;;5091632;28;20274;-50
2022/10/29 02:56:55;;;;;;;5.30;4.20;;;21.10;71.80;22.00;101273.00;;;;5087979;28;20576;-49
2022/10/29 02:59:21;;;;;;;9.70;4.90;;;21.00;71.70;22.00;101276.00;;;;5087818;28;20169;-50
2022/10/29 03:01:47;;;;;;;9.20;4.80;;;21.00;71.70;22.00;101279.00;;;;5088162;28;20547;-50
2022/10/29 03:04:13;;;;;;;6.83;4.70;;;21.00;71.70;22.00;101283.00;;;;5087262;28;20173;-50
2022/10/29 03:06:38;;;;;;;6.50;4.73;;;21.00;71.70;22.00;101287.00;;;;5087920;28;20216;-49
2022/10/29 03:09:04;;;;;;;6.53;4.87;;;21.00;71.70;22.00;101278.00;;;;5090078;28;20208;-50
2022/10/29 03:11:30;;;;;;;6.17;4.87;;;21.00;71.70;22.00;101264.00;;;;5102096;28;20184;-49
2022/10/29 03:13:55;;;;;;;5.67;4.80;;;21.00;71.60;22.00;101264.00;;;;5102919;28;20267;-48
2022/10/29 03:16:21;;;;;;;8.00;4.57;;;21.00;71.70;22.00;101263.00;;;;5097355;28;20543;-48
2022/10/29 03:18:47;;;;;;;5.83;4.47;;;21.00;71.70;22.00;101259.00;;;;5097648;28;20180;-48
2022/10/29 03:21:13;;;;;;;5.17;4.57;;;21.00;71.60;21.90;101256.00;;;;5092517;28;20213;-49
2022/10/29 03:23:38;;;;;;;5.43;4.30;;;21.00;71.50;21.90;101250.00;;;;5092404;28;20586;-48
2022/10/29 03:26:04;;;;;;;5.80;4.80;;;21.00;71.50;21.90;101246.00;;;;5091353;28;20396;-48
2022/10/29 03:28:30;;;;;;;6.43;4.63;;;21.00;71.50;21.90;101253.00;;;;5092028;28;20173;-50
2022/10/29 03:30:59;;;;;;;9.17;4.93;;;20.90;71.40;21.90;101247.00;;;;5091730;28;20176;-49
2022/10/29 03:33:25;;;;;;;7.33;4.70;;;20.90;72.30;21.90;101251.00;;;;5091804;28;20173;-49
2022/10/29 03:36:01;;;;;;;5.60;4.30;;;20.90;71.50;21.90;101243.00;;;;5091487;28;20569;-49
2022/10/29 03:38:27;;;;;;;7.97;4.90;;;20.90;71.40;21.90;101241.00;;;;5094293;28;20248;-48
2022/10/29 03:40:54;;;;;;;7.33;4.60;;;20.90;71.50;21.90;101241.00;;;;5090846;28;20287;-49
2022/10/29 03:43:19;;;;;;;5.60;4.73;;;20.90;71.50;21.90;101218.00;;;;5090992;28;20279;-49
2022/10/29 03:45:52;;;;;;;6.57;4.40;;;20.90;71.60;21.90;101227.00;;;;5090897;28;20201;-50
2022/10/29 03:48:18;;;;;;;7.07;4.70;;;20.90;71.50;21.90;101228.00;;;;5091282;28;20199;-48
2022/10/29 03:50:44;;;;;;;8.27;4.67;;;20.90;71.60;21.90;101230.00;;;;5093513;28;20181;-51
2022/10/29 03:53:10;;;;;;;9.87;5.00;;;20.90;71.50;21.80;101223.00;;;;5089377;28;20238;-48
2022/10/29 03:55:36;;;;;;;10.50;5.00;;;20.90;71.30;21.80;101214.00;;;;5090929;28;20534;-48
2022/10/29 03:58:02;;;;;;;5.80;4.50;;;20.80;71.40;21.80;101232.00;;;;5089830;28;20169;-49
2022/10/29 04:00:27;;;;;;;9.27;5.30;;;20.80;71.30;21.80;101216.00;;;;5088635;28;20234;-50
2022/10/29 04:02:53;;;;;;;8.97;5.17;;;20.80;71.10;21.80;101223.00;;;;5089142;28;20657;-49
2022/10/29 04:05:19;;;;;;;5.93;4.80;;;20.80;71.10;21.80;101233.00;;;;5088897;28;20231;-48
2022/10/29 04:07:44;;;;;;;8.63;5.20;;;20.80;71.10;21.80;101223.00;;;;5089365;28;20169;-48
2022/10/29 04:10:10;;;;;;;9.33;5.30;;;20.80;71.00;21.80;101233.00;;;;5088429;28;20185;-49
2022/10/29 04:12:36;;;;;;;7.87;5.70;;;20.80;70.90;21.80;101231.00;;;;5089720;28;20180;-49
2022/10/29 04:15:02;;;;;;;7.30;4.60;;;20.80;70.80;21.80;101224.00;;;;5090355;28;20188;-50
2022/10/29 04:17:27;;;;;;;9.97;5.60;;;20.80;70.90;21.70;101226.00;;;;5090894;28;20173;-48
2022/10/29 04:19:53;;;;;;;8.23;5.10;;;20.80;70.90;21.70;101218.00;;;;5089830;28;20199;-47
2022/10/29 04:22:19;;;;;;;8.37;5.63;;;20.80;70.80;21.70;101236.00;;;;5093552;28;20166;-49
2022/10/29 04:24:44;;;;;;;12.93;5.70;;;20.70;70.40;21.70;101234.00;;;;5098217;28;20165;-50
2022/10/29 04:27:10;;;;;;;11.53;5.80;;;20.60;70.60;21.70;101222.00;;;;5094184;28;20204;-48
2022/10/29 04:29:36;;;;;;;10.37;5.60;;;20.70;70.80;21.70;101213.00;;;;5101902;28;20306;-48
2022/10/29 04:32:01;;;;;;;7.33;5.10;;;20.70;70.70;21.70;101217.00;;;;5095928;28;20230;-49
2022/10/29 04:34:27;;;;;;;10.00;5.50;;;20.60;70.50;21.60;101218.00;;;;5091796;28;20710;-48
2022/10/29 04:36:53;;;;;;;8.47;5.53;;;20.50;70.30;21.60;101225.00;;;;5091278;28;20867;-49
2022/10/29 04:39:19;;;;;;;10.00;5.83;;;20.40;70.50;21.60;101210.00;;;;5091126;28;20173;-49
2022/10/29 04:41:48;;;;;;;8.90;5.20;;;20.40;70.90;21.60;101191.00;;;;5091174;28;20196;-49
2022/10/29 04:44:14;;;;;;;8.67;5.13;;;20.50;70.90;21.50;101203.00;;;;5090965;28;20180;-49
2022/10/29 04:46:39;;;;;;;10.30;5.20;;;20.50;70.60;21.50;101215.00;;;;5090755;28;20253;-48
2022/10/29 04:49:05;;;;;;;7.10;5.60;;;20.40;70.70;21.50;101199.00;;;;5085625;28;20649;-48
2022/10/29 04:51:31;;;;;;;10.80;5.47;;;20.40;70.70;21.50;101175.00;;;;5079087;28;20600;-50
2022/10/29 04:53:56;;;;;;;9.33;5.50;;;20.40;70.80;21.50;101157.00;;;;5069654;28;20234;-50
2022/10/29 04:56:23;;;;;;;9.67;5.47;;;20.40;70.60;21.50;101137.00;;;;5069602;28;20276;-48
2022/10/29 04:58:52;;;;;;;9.90;5.53;;;20.30;70.40;21.50;101132.00;;;;5069670;28;20313;-48
2022/10/29 05:01:17;;;;;;;8.60;4.93;;;20.30;70.50;21.50;101154.00;;;;5068444;28;20673;-50
2022/10/29 05:03:43;;;;;;;9.03;5.30;;;20.30;70.50;21.40;101172.00;;;;5069442;28;20173;-50
2022/10/29 05:06:09;;;;;;;11.13;5.40;;;20.30;70.60;21.40;101174.00;;;;5069798;28;20202;-48
2022/10/29 05:08:35;;;;;;;9.13;4.97;;;20.30;70.50;21.40;101164.00;;;;5070025;28;20185;-48
2022/10/29 05:11:02;;;;;;;9.03;5.00;;;20.20;70.50;21.40;101155.00;;;;5069998;28;20576;-48
2022/10/29 05:13:28;;;;;;;9.97;5.50;;;20.30;70.80;21.30;101162.00;;;;5069732;28;20245;-49
2022/10/29 05:15:54;;;;;;;11.53;5.30;;;20.30;70.60;21.40;101161.00;;;;5069398;28;20185;-49
2022/10/29 05:18:19;;;;;;;8.27;5.40;;;20.30;70.40;21.30;101155.00;;;;5069747;28;20180;-49
2022/10/29 05:20:45;;;;;;;9.60;5.60;;;20.30;70.50;21.30;101146.00;;;;5068174;28;20570;-49
2022/10/29 05:23:11;;;;;;;7.17;4.90;;;20.30;70.50;21.30;101148.00;;;;5069112;28;20200;-48
2022/10/29 05:25:38;;;;;;;7.70;5.23;;;20.40;70.50;21.30;101142.00;;;;5068832;28;20217;-48
2022/10/29 05:28:11;;;;;;;7.30;4.97;;;20.30;70.30;21.30;101163.00;;;;5069518;28;20200;-48
2022/10/29 05:30:37;;;;;;;7.33;4.90;;;20.20;70.60;21.30;101151.00;;;;5068618;28;20853;-49
2022/10/29 05:33:10;;;;;;;7.30;5.43;;;20.10;70.80;21.30;101171.00;;;;5068953;28;20230;-48
2022/10/29 05:35:35;;;;;;;9.57;5.07;;;20.10;70.80;21.30;101178.00;;;;5072189;28;20694;-48
2022/10/29 05:38:01;;;;;;;11.20;4.93;;;20.20;71.00;21.30;101173.00;;;;5077085;28;20209;-48
2022/10/29 05:40:27;;;;;;;6.67;4.60;;;20.20;70.90;21.30;101183.00;;;;5069080;28;20224;-49
2022/10/29 05:42:53;;;;;;;8.17;4.93;;;20.20;70.70;21.20;101169.00;;;;5068601;28;20546;-50
2022/10/29 05:45:19;;;;;;;7.47;5.13;;;20.30;70.60;21.20;101176.00;;;;5068063;28;20193;-48
2022/10/29 05:47:44;;;;;;;8.80;4.93;;;20.30;70.60;21.20;101181.00;;;;5068602;28;20182;-49
2022/10/29 05:50:10;;;;;;;9.40;5.23;;;20.30;70.60;21.20;101175.00;;;;5069129;28;20192;-49
2022/10/29 05:52:36;;;;;;;6.97;5.33;;;20.20;70.50;21.20;101178.00;;;;5068625;28;20540;-49
2022/10/29 05:55:02;;;;;;;11.23;5.50;;;20.20;70.50;21.20;101181.00;;;;5068582;28;20204;-48
2022/10/29 05:57:28;;;;;;;8.60;5.07;;;20.30;70.60;21.20;101163.00;;;;5069110;28;20621;-49
2022/10/29 05:59:53;;;;;;;7.77;5.40;;;20.30;70.60;21.20;101167.00;;;;5068564;28;20227;-49
2022/10/29 06:02:19;;;;;;;6.83;4.70;;;20.20;70.50;21.20;101175.00;;;;5068816;28;20169;-49
2022/10/29 06:04:45;;;;;;;8.10;4.80;;;20.20;70.40;21.20;101168.00;;;;5068179;28;20558;-49
2022/10/29 06:07:11;;;;;;;7.03;4.90;;;20.20;70.70;21.20;101169.00;;;;5069160;28;20288;-49
2022/10/29 06:09:36;;;;;;;8.27;5.33;;;20.30;70.60;21.20;101163.00;;;;5069211;28;20242;-49
2022/10/29 06:12:02;;;;;;;7.10;4.70;;;20.20;70.50;21.20;101169.00;;;;5068590;28;20630;-49
2022/10/29 06:14:28;;;;;;;7.30;4.90;;;20.20;71.30;21.20;101167.00;;;;5068274;28;20185;-49
2022/10/29 06:16:54;;;;;;;8.70;5.00;;;20.20;70.60;21.20;101155.00;;;;5069932;28;20186;-49
2022/10/29 06:19:19;;;;;;;8.50;4.93;;;20.20;70.70;21.20;101154.00;;;;5087192;28;20179;-48
2022/10/29 06:21:45;;;;;;;10.53;4.67;;;20.20;70.60;21.20;101156.00;;;;5088302;28;20672;-49
2022/10/29 06:24:12;;;;;;;8.93;4.90;;;20.10;70.70;21.20;101161.00;;;;5088344;28;20181;-49
2022/10/29 06:26:38;;;;;;;8.87;4.80;;;20.10;70.50;21.20;101155.00;;;;5088079;28;20203;-49
2022/10/29 06:29:04;;;;;;;11.63;5.10;;;20.10;70.80;21.20;101159.00;;;;5089027;28;20645;-49
2022/10/29 06:31:30;;;;;;;9.80;4.97;;;20.10;70.40;21.20;101150.00;;;;5095133;28;20193;-51
2022/10/29 06:33:56;;;;;;;8.57;5.00;;;20.20;70.70;21.20;101148.00;;;;5101109;28;20639;-49
2022/10/29 06:36:21;;;;;;;13.93;5.43;;;20.20;70.50;21.20;101156.00;;;;5095238;28;20192;-49
2022/10/29 06:38:47;;;;;;;9.03;5.30;;;20.20;70.50;21.20;101146.00;;;;5089264;28;20708;-48
2022/10/29 06:41:13;;;;;;;8.23;4.63;;;20.10;70.40;21.10;101137.00;;;;5089227;28;20544;-51
2022/10/29 06:43:39;;;;;;;9.73;5.00;;;20.10;70.40;21.20;101135.00;;;;5089294;28;20202;-49
2022/10/29 06:46:04;;;;;;;13.17;5.37;;;20.00;70.30;21.10;101135.00;;;;5091657;28;20683;-48
2022/10/29 06:48:30;;;;;;;10.17;4.83;;;20.00;70.40;21.10;101133.00;;;;5092003;28;20652;-49
2022/10/29 06:50:58;;;;;;;9.10;5.47;;;19.90;70.40;21.10;101133.00;;;;5097616;28;20254;-48
2022/10/29 06:53:24;;;;;;;7.77;5.00;;;19.90;70.60;21.10;101134.00;;;;5096336;28;20218;-49
2022/10/29 06:55:50;;;;;;;10.60;5.70;;;19.80;70.70;21.00;101137.00;;;;5092376;28;20677;-49
2022/10/29 06:58:18;;;;;;;11.80;5.50;;;19.80;70.80;21.00;101157.00;;;;5092517;28;20641;-49
2022/10/29 07:00:44;;;;;;;11.20;5.30;;;19.80;70.90;21.00;101164.00;;;;5093741;28;20193;-49
2022/10/29 07:03:17;;;;;;;12.17;5.50;;;19.90;70.70;20.80;101117.00;;;;5005553;28;20262;-48
2022/10/29 07:05:43;;;;;;;15.00;5.17;;;19.90;70.40;21.00;101170.00;;;;5022188;28;20323;-48
2022/10/29 07:08:09;;;;;;;12.17;5.23;;;20.00;70.90;21.00;101164.00;;;;5092612;28;20361;-49
2022/10/29 07:10:34;;;;;;;12.40;5.00;;;20.00;70.50;21.00;101173.00;;;;5091695;28;20193;-49
2022/10/29 07:13:00;;;;;;;12.60;4.97;;;20.10;70.70;21.00;101170.00;;;;5091222;28;20296;-49
2022/10/29 07:15:26;;;;;;;9.27;4.93;;;20.10;70.50;21.00;101176.00;;;;5091364;28;20238;-48
2022/10/29 07:18:05;;;;;;;13.20;5.40;;;20.10;70.50;21.00;101174.00;;;;5070035;28;20193;-48
2022/10/29 07:20:34;;;;;;;8.30;4.97;;;20.20;70.50;21.00;101167.00;;;;5071271;28;20232;-48
2022/10/29 07:23:00;;;;;;;10.13;4.87;;;20.20;70.50;21.10;101165.00;;;;5086512;28;20243;-48
2022/10/29 07:25:26;;;;;;;12.47;4.67;;;20.20;70.50;21.10;101160.00;;;;5089793;28;20288;-48
2022/10/29 07:27:52;;;;;;;7.67;4.77;;;20.20;70.50;21.10;101163.00;;;;5091421;28;20230;-49
2022/10/29 07:30:18;;;;;;;9.20;4.47;;;20.20;70.60;21.10;101164.00;;;;5091336;28;20193;-49
2022/10/29 07:32:45;;;;;;;10.70;4.87;;;20.20;70.70;21.10;101171.00;;;;5091126;28;20258;-48
2022/10/29 07:35:11;;;;;;;9.20;4.60;;;20.20;70.80;21.10;101171.00;;;;5090963;28;20154;-50
2022/10/29 07:37:37;;;;;;;7.43;4.37;;;20.20;70.90;21.10;101184.00;;;;5090202;28;20171;-48
2022/10/29 07:40:04;;;;;;;8.33;4.67;;;20.20;71.00;21.10;101199.00;;;;5090900;28;20707;-49
2022/10/29 07:42:29;;;;;;;8.97;4.87;;;20.20;71.30;21.00;101191.00;;;;5090977;28;20187;-48
2022/10/29 07:44:55;;;;;;;6.57;4.30;;;20.20;71.30;21.10;101193.00;;;;5090657;28;20529;-49
2022/10/29 07:47:21;;;;;;;5.47;4.27;;;20.30;71.40;21.10;101204.00;;;;5091435;28;20220;-48
2022/10/29 07:49:46;;;;;;;10.30;4.90;;;20.20;71.30;21.10;101199.00;;;;5091129;28;20292;-50
2022/10/29 07:52:12;;;;;;;5.60;4.20;;;20.20;71.30;21.10;101193.00;;;;5091617;28;20179;-49
2022/10/29 07:54:38;;;;;;;7.47;4.37;;;20.20;71.30;21.10;101198.00;;;;5090262;28;20200;-49
2022/10/29 07:57:04;;;;;;;7.97;4.30;;;20.20;71.40;21.20;101186.00;;;;5090900;28;20173;-49
2022/10/29 07:59:29;;;;;;;7.23;4.43;;;20.20;71.40;21.10;101182.00;;;;5090469;28;20205;-49
2022/10/29 08:01:55;;;;;;;7.63;4.60;;;20.20;71.40;21.10;101191.00;;;;5090558;28;20316;-49
2022/10/29 08:04:21;;;;;;;6.93;4.33;;;20.20;71.50;21.10;101184.00;;;;4959886;28;20260;-48
2022/10/29 08:06:47;;;;;;;8.03;4.10;;;20.20;71.50;21.10;101183.00;;;;5089939;28;20200;-48
2022/10/29 08:09:13;;;;;;;5.80;4.30;;;20.20;71.50;21.10;101192.00;;;;5090275;28;20211;-49
2022/10/29 08:11:39;;;;;;;5.73;4.20;;;20.20;71.50;21.10;101197.00;;;;5092446;28;20225;-48
2022/10/29 08:14:04;;;;;;;6.07;4.30;;;20.20;71.50;20.90;101189.00;;;;5093393;28;20169;-48
2022/10/29 08:16:30;;;;;;;6.10;4.33;;;20.10;71.40;21.10;101180.00;;;;5090601;28;20358;-48
2022/10/29 08:18:56;;;;;;;7.93;4.53;;;20.10;71.40;21.10;101186.00;;;;5090166;28;20610;-49
2022/10/29 08:21:22;;;;;;;5.50;3.93;;;20.10;71.40;21.10;101174.00;;;;5090058;28;20703;-49
2022/10/29 08:23:47;;;;;;;5.80;4.50;;;20.10;71.40;21.10;101177.00;;;;5090154;28;20705;-47
2022/10/29 08:26:13;;;;;;;6.93;4.33;;;20.10;71.50;21.10;101177.00;;;;5089218;28;20283;-48
2022/10/29 08:28:39;;;;;;;8.03;4.40;;;20.10;71.50;21.10;101175.00;;;;5089239;28;20191;-48
2022/10/29 08:31:05;;;;;;;10.27;4.80;;;20.10;71.50;21.10;101173.00;;;;5090473;28;20292;-50
2022/10/29 08:33:31;;;;;;;13.70;5.00;;;20.10;71.40;21.10;101168.00;;;;5089958;28;20582;-47
2022/10/29 08:35:57;;;;;;;6.40;4.40;;;20.10;72.50;21.10;101163.00;;;;5089986;28;20181;-49
2022/10/29 08:38:23;;;;;;;12.30;4.80;;;20.10;71.90;21.10;101160.00;;;;5090130;28;20183;-49
2022/10/29 08:41:37;;;;;;;9.97;5.20;;;20.10;71.80;21.10;101157.00;;;;5090056;28;20561;-48
2022/10/29 08:44:43;;;;;;;9.70;5.00;;;20.10;71.60;21.10;101155.00;;;;5088850;28;20545;-49
2022/10/29 08:47:15;;;;;;;11.53;5.13;;;20.10;71.70;21.00;101157.00;;;;5073322;28;20197;-49
2022/10/29 08:50:05;;;;;;;8.70;5.00;;;20.10;71.80;21.10;101145.00;;;;5071813;28;20192;-48
2022/10/29 08:52:35;;;;;;;9.30;5.30;;;20.20;72.10;21.10;101166.00;;;;5072106;28;20882;-49
2022/10/29 08:55:39;;;;;;;12.23;4.83;;;20.10;72.00;21.10;101163.00;;;;5071243;28;20248;-49
2022/10/29 08:58:40;;;;;;;10.40;5.03;;;20.20;72.30;21.10;101169.00;;;;5089329;28;20181;-49
2022/10/29 09:01:10;;;;;;;11.00;5.20;;;20.20;72.30;21.00;101154.00;;;;5088599;28;20637;-48
2022/10/29 09:03:36;;;;;;;10.93;5.23;;;20.20;72.60;21.10;101165.00;;;;4962625;28;20269;-48
2022/10/29 09:06:29;;;;;;;11.13;5.00;;;20.20;72.50;21.10;101159.00;;;;5088140;28;20196;-49
2022/10/29 09:09:30;;;;;;;10.33;5.07;;;20.20;72.30;21.10;101158.00;;;;5089028;28;20169;-48
2022/10/29 09:12:32;;;;;;;10.27;5.10;;;20.20;72.30;21.10;101152.00;;;;5089511;28;20263;-49
2022/10/29 09:15:22;;;;;;;10.57;4.77;;;20.20;72.30;21.10;101154.00;;;;5089191;28;20184;-48
2022/10/29 09:18:19;;;;;;;7.00;4.20;;;20.20;72.30;21.10;101150.00;;;;5088830;28;20165;-49
2022/10/29 09:21:25;;;;;;;10.07;4.90;;;20.20;72.30;21.10;101149.00;;;;5088897;28;20239;-49
2022/10/29 09:24:03;;;;;;;10.67;5.00;;;20.20;72.30;21.10;101133.00;;;;5089082;28;20177;-48
2022/10/29 09:26:58;;;;;;;10.93;4.97;;;20.20;73.50;21.10;101146.00;;;;5089240;28;20185;-46
2022/10/29 09:29:51;;;;;;;9.00;4.90;;;20.20;72.30;21.10;101142.00;;;;5088528;28;20219;-47
2022/10/29 09:32:33;;;;;;;13.30;6.47;;;20.30;72.40;21.10;101155.00;;;;5089609;28;20171;-46
2022/10/29 09:35:13;;;;;;;15.03;6.43;;;20.30;72.80;21.20;101153.00;;;;5088313;28;20648;-47
2022/10/29 09:37:55;;;;;;;12.70;6.10;;;20.30;73.10;21.20;101158.00;;;;5090192;28;20248;-47
2022/10/29 09:40:41;;;;;;;13.50;6.40;;;20.30;73.00;21.20;101156.00;;;;5088504;28;20420;-47
2022/10/29 09:43:41;;;;;;;16.77;7.70;;;20.30;73.30;21.20;101158.00;;;;5089274;28;20197;-48
2022/10/29 09:46:36;;;;;;;14.17;8.47;;;20.40;73.80;21.20;101164.00;;;;5089438;28;20210;-46
2022/10/29 09:49:56;;;;;;;17.00;7.40;;;20.40;74.30;21.30;101150.00;;;;5090927;28;20181;-46
2022/10/29 09:52:33;;;;;;;13.23;7.20;;;20.40;74.10;21.20;101152.00;;;;5088503;28;20202;-46
2022/10/29 09:54:59;;;;;;;11.33;6.93;;;20.40;73.90;21.30;101146.00;;;;5087840;28;20204;-47
2022/10/29 09:57:28;;;;;;;11.40;6.50;;;20.40;73.60;21.30;101151.00;;;;5088246;28;20271;-47
2022/10/29 10:00:15;;;;;;;15.47;7.30;;;20.40;73.70;21.30;101142.00;;;;5088235;28;20200;-48
2022/10/29 10:02:53;;;;;;;11.33;6.50;;;20.40;74.10;21.30;101148.00;;;;5088310;28;20152;-47
2022/10/29 10:05:32;;;;;;;21.73;8.27;;;20.40;74.20;21.30;101141.00;;;;5037236;28;20189;-48
2022/10/29 10:08:12;;;;;;;18.30;9.50;;;20.50;74.80;21.40;101145.00;;;;5087753;28;20826;-47
2022/10/29 10:11:03;;;;;;;22.03;10.17;;;20.60;75.20;21.40;101143.00;;;;5088553;28;20196;-46
2022/10/29 10:13:31;;;;;;;16.80;8.23;;;20.60;75.70;21.40;101138.00;;;;5088664;28;20183;-46
2022/10/29 10:15:59;;;;;;;13.83;7.87;;;20.60;74.70;21.40;101141.00;;;;5088414;28;20189;-46
2022/10/29 10:18:31;;;;;;;17.27;7.47;;;20.60;74.90;21.40;101135.00;;;;5090582;28;20188;-46
2022/10/29 10:21:06;;;;;;;10.80;7.13;;;20.60;74.60;21.50;101142.00;;;;5093002;28;20196;-46
2022/10/29 10:23:44;;;;;;;16.07;8.40;;;20.60;74.50;21.50;101130.00;;;;5093435;28;20230;-46
2022/10/29 10:26:41;;;;;;;15.80;7.57;;;20.60;74.70;21.50;101135.00;;;;5091919;28;20252;-48
2022/10/29 10:29:23;;;;;;;17.23;8.30;;;20.60;74.60;21.50;101137.00;;;;5091901;28;20183;-46
2022/10/29 10:32:13;;;;;;;16.70;7.80;;;20.60;75.40;21.60;101133.00;;;;5091363;28;20228;-47
2022/10/29 10:34:39;;;;;;;14.97;7.47;;;20.70;76.10;21.50;101133.00;;;;5091198;28;20244;-47
2022/10/29 10:37:15;;;;;;;16.70;7.20;;;20.60;75.50;21.50;101132.00;;;;5092304;28;20169;-47
2022/10/29 10:39:54;;;;;;;12.60;7.13;;;20.70;74.90;21.50;101132.00;;;;5092912;28;20196;-46
2022/10/29 10:42:26;;;;;;;12.13;6.63;;;20.60;74.60;21.50;101127.00;;;;5091436;28;20172;-47
2022/10/29 10:45:04;;;;;;;10.60;6.13;;;20.60;74.40;21.50;101118.00;;;;5091278;28;20210;-47
2022/10/29 10:47:33;;;;;;;13.87;6.17;;;20.60;74.30;21.50;101120.00;;;;5085164;28;20674;-47
2022/10/29 10:50:28;;;;;;;13.27;6.53;;;20.60;74.20;21.50;101110.00;;;;5091039;28;20201;-47
2022/10/29 10:52:57;;;;;;;11.87;5.57;;;20.60;74.30;21.50;101091.00;;;;5091038;28;20621;-47
2022/10/29 10:55:28;;;;;;;14.13;6.30;;;20.60;74.30;21.50;101109.00;;;;5090962;28;20658;-46
2022/10/29 10:58:24;;;;;;;12.07;5.60;;;20.60;74.20;21.50;101101.00;;;;5092138;28;20649;-47
2022/10/29 11:01:31;;;;;;;11.20;5.50;;;20.60;74.00;21.50;101110.00;;;;5069494;28;20217;-47
2022/10/29 11:04:12;;;;;;;10.17;5.17;;;20.60;73.80;21.50;101099.00;;;;5025475;28;20230;-46